Time;durP1;ratioP1;P1;durP2;ratioP2;P2;SDS_P1;SDS_P2;PMS_P1;PMS_P2;Temp;Humidity;BMP_temperature;BMP_pressure;BME280_temperature;BME280_humidity;BME280_pressure;Samples;Min_cycle;Max_cycle;Signal;HPM_P1;HPM_P2
2023/10/25 00:02:20;;;;;;;7.45;3.38;;;16.60;97.10;;;;;;5043886;28;20037;-65
2023/10/25 00:04:46;;;;;;;7.38;3.50;;;16.50;97.10;;;;;;5042900;28;20055;-66
2023/10/25 00:07:12;;;;;;;6.93;3.20;;;;;;;;;;5038862;28;20106;-66
2023/10/25 00:09:38;;;;;;;6.88;3.80;;;;;;;;;;5038285;28;20057;-67
2023/10/25 00:12:04;;;;;;;6.25;3.40;;;16.50;97.00;;;;;;5045052;28;20517;-65
2023/10/25 00:14:30;;;;;;;5.65;3.47;;;16.30;96.90;;;;;;5045810;28;20048;-66
2023/10/25 00:16:55;;;;;;;10.25;3.47;;;16.40;97.00;;;;;;5044624;28;20380;-65
2023/10/25 00:19:21;;;;;;;6.43;3.47;;;16.60;97.00;;;;;;5041517;28;20037;-65
2023/10/25 00:21:47;;;;;;;6.00;3.10;;;;;;;;;;5035941;28;20411;-66
2023/10/25 00:24:14;;;;;;;6.00;3.25;;;16.40;96.90;;;;;;5034385;28;20045;-65
2023/10/25 00:26:40;;;;;;;5.88;3.20;;;16.50;96.90;;;;;;5043730;28;20052;-65
2023/10/25 00:29:06;;;;;;;6.13;3.25;;;;;;;;;;5048833;28;20072;-66
2023/10/25 00:31:32;;;;;;;4.72;2.85;;;;;;;;;;5038509;28;20077;-64
2023/10/25 00:33:58;;;;;;;7.30;3.30;;;16.40;96.90;;;;;;5036518;28;20518;-68
2023/10/25 00:36:24;;;;;;;6.07;3.20;;;;;;;;;;5047157;28;20081;-66
2023/10/25 00:38:50;;;;;;;5.93;3.40;;;;;;;;;;5046880;28;20040;-65
2023/10/25 00:41:16;;;;;;;6.20;3.28;;;;;;;;;;5060529;28;20095;-67
2023/10/25 00:43:42;;;;;;;6.60;3.40;;;;;;;;;;5054704;28;20044;-65
2023/10/25 00:46:13;;;;;;;6.95;3.20;;;16.20;95.00;;;;;;5053091;28;20100;-68
2023/10/25 00:48:41;;;;;;;6.75;3.33;;;16.40;95.70;;;;;;5059742;28;20053;-65
2023/10/25 00:51:08;;;;;;;5.68;2.80;;;;;;;;;;5039237;28;20080;-65
2023/10/25 00:53:34;;;;;;;6.22;3.05;;;;;;;;;;5061678;28;20106;-66
2023/10/25 00:56:00;;;;;;;9.15;3.40;;;16.40;96.80;;;;;;5032591;28;20079;-64
2023/10/25 00:58:26;;;;;;;7.47;3.17;;;16.50;96.80;;;;;;5050487;28;20503;-64
2023/10/25 01:00:55;;;;;;;6.13;3.05;;;16.50;96.80;;;;;;5055296;28;20132;-67
2023/10/25 01:03:21;;;;;;;6.78;3.05;;;;;;;;;;5049076;28;20045;-64
2023/10/25 01:05:48;;;;;;;7.72;3.40;;;;;;;;;;5039371;28;20053;-65
2023/10/25 01:08:21;;;;;;;6.63;3.05;;;16.40;95.00;;;;;;5033510;28;20084;-66
2023/10/25 01:10:50;;;;;;;5.93;2.83;;;16.30;96.60;;;;;;5061783;28;20474;-65
2023/10/25 01:13:19;;;;;;;6.05;3.30;;;16.20;95.70;;;;;;5023079;28;20474;-66
2023/10/25 01:15:45;;;;;;;6.05;2.80;;;16.40;96.70;;;;;;5045324;28;20041;-65
2023/10/25 01:18:11;;;;;;;5.47;2.97;;;16.30;96.70;;;;;;5044517;28;20043;-64
2023/10/25 01:20:37;;;;;;;7.28;3.03;;;;;;;;;;5046497;28;20292;-66
2023/10/25 01:23:03;;;;;;;6.13;3.08;;;16.50;96.70;;;;;;5050965;28;20041;-65
2023/10/25 01:25:29;;;;;;;4.88;2.60;;;;;;;;;;5042590;28;20044;-65
2023/10/25 01:27:56;;;;;;;7.40;3.00;;;;;;;;;;5049007;28;20049;-65
2023/10/25 01:30:22;;;;;;;7.50;2.97;;;16.30;96.50;;;;;;5043579;28;20045;-65
2023/10/25 01:32:47;;;;;;;5.40;3.08;;;16.40;96.60;;;;;;5033015;28;20498;-65
2023/10/25 01:35:13;;;;;;;7.32;3.17;;;16.40;96.60;;;;;;5062367;28;20041;-64
2023/10/25 01:37:39;;;;;;;5.95;3.13;;;16.30;96.60;;;;;;5044290;28;20052;-64
2023/10/25 01:40:06;;;;;;;5.85;2.85;;;16.50;96.50;;;;;;5044629;28;20124;-65
2023/10/25 01:42:32;;;;;;;5.72;3.28;;;;;;;;;;5039506;28;20083;-65
2023/10/25 01:44:58;;;;;;;5.47;2.80;;;16.30;96.40;;;;;;5042614;28;20043;-64
2023/10/25 01:47:23;;;;;;;6.25;3.05;;;16.40;96.50;;;;;;5038727;28;20538;-65
2023/10/25 01:49:49;;;;;;;6.57;3.10;;;16.30;96.40;;;;;;5040114;28;20061;-64
2023/10/25 01:52:15;;;;;;;7.43;2.92;;;16.40;96.50;;;;;;5045299;28;20056;-65
2023/10/25 01:54:42;;;;;;;6.43;3.00;;;16.30;96.50;;;;;;5044842;28;20053;-65
2023/10/25 01:57:08;;;;;;;6.65;2.83;;;;;;;;;;5047293;28;20392;-65
2023/10/25 01:59:34;;;;;;;6.22;3.20;;;16.40;96.50;;;;;;5045572;28;20037;-65
2023/10/25 02:02:00;;;;;;;5.72;3.30;;;16.40;96.40;;;;;;5044864;28;20059;-67
2023/10/25 02:04:26;;;;;;;6.30;2.88;;;16.50;96.40;;;;;;5044379;28;20399;-64
2023/10/25 02:06:52;;;;;;;6.22;2.90;;;16.20;96.30;;;;;;5033924;28;20056;-65
2023/10/25 02:09:18;;;;;;;6.05;2.90;;;16.50;95.20;;;;;;5037533;28;20041;-65
2023/10/25 02:11:44;;;;;;;6.18;2.80;;;;;;;;;;5027038;28;20049;-66
2023/10/25 02:14:10;;;;;;;6.05;2.72;;;16.50;96.40;;;;;;5049123;28;20516;-65
2023/10/25 02:16:36;;;;;;;5.95;2.70;;;;;;;;;;5052753;28;20069;-65
2023/10/25 02:19:02;;;;;;;6.68;2.78;;;;;;;;;;5045767;28;20407;-64
2023/10/25 02:21:29;;;;;;;5.40;2.50;;;;;;;;;;5038291;28;20054;-65
2023/10/25 02:23:55;;;;;;;6.05;2.67;;;16.40;96.30;;;;;;5048035;28;20076;-65
2023/10/25 02:26:21;;;;;;;6.70;2.50;;;16.40;96.30;;;;;;5045479;28;20076;-65
2023/10/25 02:28:47;;;;;;;7.22;3.22;;;16.20;96.30;;;;;;5045655;28;20130;-65
2023/10/25 02:31:12;;;;;;;5.95;2.65;;;16.30;96.20;;;;;;5045854;28;20124;-69
2023/10/25 02:33:38;;;;;;;5.57;2.90;;;16.30;95.90;;;;;;5047971;28;20099;-69
2023/10/25 02:36:04;;;;;;;6.43;2.70;;;16.30;96.30;;;;;;5058617;28;20414;-65
2023/10/25 02:38:30;;;;;;;6.22;2.70;;;16.30;96.10;;;;;;5061681;28;20048;-65
2023/10/25 02:40:56;;;;;;;6.53;2.88;;;16.20;96.20;;;;;;5055926;28;20040;-65
2023/10/25 02:43:22;;;;;;;5.30;3.05;;;;;;;;;;5055728;28;20045;-65
2023/10/25 02:45:48;;;;;;;5.40;2.70;;;;;;;;;;5052353;28;20055;-65
2023/10/25 02:48:14;;;;;;;6.70;2.85;;;;;;;;;;5064747;28;20047;-65
2023/10/25 02:50:41;;;;;;;5.88;2.72;;;;;;;;;;5043926;28;20145;-65
2023/10/25 02:53:07;;;;;;;6.43;3.03;;;;;;;;;;5045942;28;20107;-65
2023/10/25 02:55:33;;;;;;;6.38;2.72;;;16.30;95.00;;;;;;5060943;28;20513;-65
2023/10/25 02:57:59;;;;;;;5.60;2.85;;;;;;;;;;5070432;28;20044;-65
2023/10/25 03:00:25;;;;;;;5.68;2.92;;;;;;;;;;5059417;28;20083;-66
2023/10/25 03:02:51;;;;;;;6.20;3.05;;;16.30;96.20;;;;;;5034043;28;20056;-65
2023/10/25 03:05:17;;;;;;;7.10;3.28;;;;;;;;;;5050294;28;20053;-65
2023/10/25 03:07:43;;;;;;;6.70;2.88;;;;;;;;;;5037116;28;20452;-64
2023/10/25 03:10:09;;;;;;;6.72;2.80;;;;;;;;;;5035890;28;20748;-67
2023/10/25 03:12:36;;;;;;;6.30;3.13;;;;;;;;;;5038004;28;20037;-64
2023/10/25 03:15:01;;;;;;;7.13;3.38;;;16.00;96.00;;;;;;5033610;28;20056;-64
2023/10/25 03:17:28;;;;;;;7.70;3.40;;;16.10;96.00;;;;;;5029583;28;20423;-64
2023/10/25 03:19:54;;;;;;;5.93;3.03;;;16.20;96.00;;;;;;5047245;28;20056;-66
2023/10/25 03:22:19;;;;;;;6.00;2.88;;;16.10;95.00;;;;;;5043743;28;20406;-66
2023/10/25 03:24:45;;;;;;;7.45;3.28;;;;;;;;;;5065551;28;20080;-66
2023/10/25 03:27:12;;;;;;;6.38;3.38;;;;;;;;;;5040474;28;20128;-65
2023/10/25 03:29:38;;;;;;;6.53;3.25;;;;;;;;;;5042742;28;20049;-64
2023/10/25 03:32:04;;;;;;;6.78;3.38;;;16.20;96.00;;;;;;5036605;28;20044;-65
2023/10/25 03:34:30;;;;;;;7.60;3.72;;;16.20;96.00;;;;;;5040058;28;20411;-64
2023/10/25 03:36:56;;;;;;;5.30;3.05;;;;;;;;;;5046951;28;20041;-65
2023/10/25 03:39:22;;;;;;;6.32;3.40;;;;;;;;;;5031295;28;20053;-64
2023/10/25 03:41:48;;;;;;;7.10;3.35;;;16.20;96.00;;;;;;5045260;28;20037;-64
2023/10/25 03:44:14;;;;;;;7.30;3.70;;;;;;;;;;5038980;28;20075;-68
2023/10/25 03:46:40;;;;;;;7.38;3.90;;;;;;;;;;5020675;28;20041;-64
2023/10/25 03:49:06;;;;;;;6.90;3.65;;;;;;;;;;5043869;28;20091;-64
2023/10/25 03:51:32;;;;;;;6.45;3.40;;;;;;;;;;5041565;28;20453;-64
2023/10/25 03:53:58;;;;;;;6.30;3.60;;;16.00;95.90;;;;;;5044155;28;20495;-65
2023/10/25 03:56:24;;;;;;;8.10;3.90;;;;;;;;;;5045265;28;20084;-68
2023/10/25 03:58:50;;;;;;;6.95;3.33;;;16.20;96.00;;;;;;5041392;28;20117;-65
2023/10/25 04:01:16;;;;;;;7.38;3.58;;;16.20;95.90;;;;;;5042910;28;20526;-65
2023/10/25 04:03:42;;;;;;;7.03;3.65;;;;;;;;;;5042416;28;20045;-64
2023/10/25 04:06:08;;;;;;;5.60;3.45;;;;;;;;;;5048441;28;20084;-65
2023/10/25 04:08:34;;;;;;;7.72;3.70;;;16.20;95.90;;;;;;5036242;28;20453;-65
2023/10/25 04:11:00;;;;;;;6.00;3.65;;;16.30;95.90;;;;;;5032118;28;20426;-64
2023/10/25 04:13:26;;;;;;;6.65;3.60;;;16.30;95.90;;;;;;5042500;28;20044;-64
2023/10/25 04:15:58;;;;;;;5.85;3.70;;;16.10;95.90;;;;;;5038221;28;20045;-64
2023/10/25 04:18:25;;;;;;;6.90;3.50;;;16.10;95.10;;;;;;5036635;28;20132;-64
2023/10/25 04:20:51;;;;;;;7.72;3.78;;;16.20;95.90;;;;;;5026755;28;20064;-64
2023/10/25 04:23:18;;;;;;;7.03;3.55;;;;;;;;;;5062899;28;20187;-65
2023/10/25 04:25:44;;;;;;;7.53;3.70;;;16.20;95.80;;;;;;5043664;28;20488;-65
2023/10/25 04:28:10;;;;;;;7.15;3.40;;;15.90;95.80;;;;;;5043619;28;20044;-65
2023/10/25 04:30:36;;;;;;;6.28;3.40;;;;;;;;;;5043087;28;20053;-67
2023/10/25 04:33:02;;;;;;;7.18;3.58;;;16.20;95.90;;;;;;5042886;28;20041;-64
2023/10/25 04:35:28;;;;;;;6.57;3.30;;;;;;;;;;5057607;28;20055;-64
2023/10/25 04:37:57;;;;;;;7.45;3.10;;;16.00;95.80;;;;;;5064484;28;20174;-64
2023/10/25 04:40:23;;;;;;;6.72;3.05;;;16.00;95.80;;;;;;5060071;28;20128;-67
2023/10/25 04:42:50;;;;;;;6.13;3.10;;;;;;;;;;5020362;28;20131;-65
2023/10/25 04:45:16;;;;;;;6.25;3.30;;;16.30;95.90;;;;;;5071777;28;20541;-65
2023/10/25 04:47:42;;;;;;;6.13;3.30;;;16.20;95.90;;;;;;5068521;28;20045;-65
2023/10/25 04:50:08;;;;;;;6.65;3.40;;;16.20;95.90;;;;;;5041905;28;20123;-65
2023/10/25 04:52:34;;;;;;;5.93;3.10;;;16.00;95.40;;;;;;5053158;28;20092;-64
2023/10/25 04:55:00;;;;;;;6.40;3.50;;;;;;;;;;5054521;28;20084;-65
2023/10/25 04:57:26;;;;;;;5.82;2.85;;;16.20;95.80;;;;;;5056680;28;20052;-64
2023/10/25 04:59:52;;;;;;;5.05;2.80;;;16.20;95.70;;;;;;5061847;28;20052;-64
2023/10/25 05:02:19;;;;;;;6.13;3.00;;;;;;;;;;5038816;28;20049;-68
2023/10/25 05:04:45;;;;;;;6.57;3.20;;;;;;;;;;5042279;28;21260;-65
2023/10/25 05:07:11;;;;;;;5.78;2.78;;;16.10;95.80;;;;;;5043631;28;20115;-64
2023/10/25 05:09:37;;;;;;;5.78;2.85;;;16.20;95.70;;;;;;5045252;28;20364;-65
2023/10/25 05:12:06;;;;;;;8.88;3.35;;;16.10;95.70;;;;;;5043589;28;20126;-64
2023/10/25 05:14:33;;;;;;;6.57;3.10;;;16.00;95.80;;;;;;5052699;28;20055;-64
2023/10/25 05:17:05;;;;;;;6.50;2.88;;;16.00;95.80;;;;;;5039001;28;20559;-64
2023/10/25 05:19:31;;;;;;;6.10;2.80;;;16.00;95.70;;;;;;5032681;28;20049;-64
2023/10/25 05:21:59;;;;;;;6.30;3.17;;;16.20;95.70;;;;;;5044471;28;20920;-64
2023/10/25 05:24:25;;;;;;;5.93;2.90;;;;;;;;;;5040914;28;20100;-64
2023/10/25 05:26:51;;;;;;;6.63;3.28;;;16.20;95.70;;;;;;5039182;28;20106;-64
2023/10/25 05:29:17;;;;;;;5.72;2.70;;;16.00;95.60;;;;;;5042624;28;20049;-64
2023/10/25 05:31:44;;;;;;;7.57;3.22;;;16.10;95.70;;;;;;5043272;28;20558;-64
2023/10/25 05:34:10;;;;;;;5.80;3.00;;;16.00;94.40;;;;;;5045171;28;20094;-67
2023/10/25 05:36:37;;;;;;;6.60;3.35;;;;;;;;;;5042654;28;20098;-66
2023/10/25 05:39:03;;;;;;;6.30;2.80;;;16.20;95.60;;;;;;5028214;28;20050;-64
2023/10/25 05:41:30;;;;;;;5.57;2.80;;;;;;;;;;5046797;28;20049;-64
2023/10/25 05:44:07;;;;;;;5.20;3.28;;;16.20;95.50;;;;;;5043154;28;20862;-69
2023/10/25 05:46:33;;;;;;;6.45;2.97;;;;;;;;;;5026334;28;20048;-66
2023/10/25 05:49:00;;;;;;;5.93;3.20;;;;;;;;;;5039909;28;20075;-68
2023/10/25 05:51:26;;;;;;;6.47;3.20;;;;;;;;;;5041570;28;20052;-65
2023/10/25 05:53:52;;;;;;;6.78;3.03;;;16.00;95.30;;;;;;5047281;28;20124;-64
2023/10/25 05:56:18;;;;;;;6.85;3.20;;;16.00;95.30;;;;;;5046163;28;20548;-64
2023/10/25 05:58:46;;;;;;;7.18;3.13;;;;;;;;;;5047184;28;20044;-68
2023/10/25 06:01:11;;;;;;;6.72;3.67;;;16.00;95.20;;;;;;5037145;28;20045;-65
2023/10/25 06:03:39;;;;;;;6.28;3.17;;;15.90;95.20;;;;;;5040066;28;20116;-65
2023/10/25 06:06:06;;;;;;;8.30;3.38;;;16.00;95.20;;;;;;5042833;28;20068;-69
2023/10/25 06:08:32;;;;;;;6.38;2.90;;;16.00;95.20;;;;;;5027575;28;20037;-66
2023/10/25 06:10:58;;;;;;;7.07;3.50;;;16.00;94.90;;;;;;5037693;28;20045;-64
2023/10/25 06:13:24;;;;;;;6.10;3.58;;;15.80;95.00;;;;;;5046492;28;20063;-65
2023/10/25 06:15:50;;;;;;;7.57;3.40;;;;;;;;;;5029910;28;20071;-65
2023/10/25 06:18:16;;;;;;;6.40;3.38;;;15.90;95.00;;;;;;5048889;28;20364;-66
2023/10/25 06:20:42;;;;;;;5.95;3.00;;;15.90;95.00;;;;;;5043013;28;20068;-65
2023/10/25 06:23:08;;;;;;;6.15;3.40;;;;;;;;;;5047657;28;20047;-64
2023/10/25 06:25:34;;;;;;;6.40;3.67;;;15.90;95.10;;;;;;5046393;28;20064;-64
2023/10/25 06:27:59;;;;;;;7.25;3.25;;;15.90;94.90;;;;;;5040633;28;20120;-65
2023/10/25 06:30:28;;;;;;;6.40;2.97;;;15.90;94.90;;;;;;5032888;28;20128;-64
2023/10/25 06:32:56;;;;;;;6.57;3.35;;;15.70;94.80;;;;;;5042461;28;20041;-65
2023/10/25 06:35:23;;;;;;;5.90;3.17;;;;;;;;;;5032030;28;20057;-68
2023/10/25 06:37:49;;;;;;;6.47;3.30;;;;;;;;;;5049421;28;20056;-64
2023/10/25 06:40:15;;;;;;;7.82;3.33;;;15.90;94.80;;;;;;5027558;28;20061;-65
2023/10/25 06:42:42;;;;;;;9.02;3.67;;;;;;;;;;5043262;28;20149;-64
2023/10/25 06:45:10;;;;;;;7.68;2.83;;;15.90;93.50;;;;;;5037405;28;20455;-69
2023/10/25 06:47:36;;;;;;;7.22;3.67;;;15.70;94.60;;;;;;5026425;28;20079;-67
2023/10/25 06:50:03;;;;;;;6.25;3.25;;;15.70;94.70;;;;;;5023630;28;20045;-69
2023/10/25 06:52:29;;;;;;;6.90;3.10;;;15.80;94.30;;;;;;5049379;28;20052;-68
2023/10/25 06:54:55;;;;;;;6.90;3.10;;;15.60;94.60;;;;;;5045880;28;20045;-64
2023/10/25 06:57:21;;;;;;;7.13;3.17;;;15.80;94.70;;;;;;5051017;28;20131;-64
2023/10/25 06:59:48;;;;;;;5.90;3.10;;;15.60;94.60;;;;;;5050669;28;20470;-64
2023/10/25 07:02:20;;;;;;;8.45;2.90;;;15.90;93.70;;;;;;5048815;28;20112;-63
2023/10/25 07:04:46;;;;;;;6.50;3.00;;;15.80;93.90;;;;;;5047596;28;20048;-64
2023/10/25 07:07:12;;;;;;;8.48;3.50;;;15.70;94.70;;;;;;5031206;28;20115;-63
2023/10/25 07:09:38;;;;;;;6.45;3.20;;;15.90;94.70;;;;;;5015455;28;20160;-64
2023/10/25 07:12:04;;;;;;;7.30;3.13;;;15.80;94.60;;;;;;5048605;28;20391;-70
2023/10/25 07:14:30;;;;;;;8.00;3.67;;;;;;;;;;5045727;28;20041;-64
2023/10/25 07:16:57;;;;;;;6.40;3.25;;;15.80;94.30;;;;;;5051026;28;20040;-66
2023/10/25 07:19:23;;;;;;;7.20;3.30;;;15.90;94.60;;;;;;5032255;28;20045;-66
2023/10/25 07:21:49;;;;;;;7.95;3.38;;;15.90;94.80;;;;;;5043004;28;20066;-67
2023/10/25 07:24:14;;;;;;;6.25;3.25;;;15.70;94.50;;;;;;5043633;28;20483;-64
2023/10/25 07:26:40;;;;;;;7.45;3.65;;;;;;;;;;5046091;28;20060;-65
2023/10/25 07:29:06;;;;;;;8.30;3.13;;;15.80;94.80;;;;;;5051905;28;20041;-64
2023/10/25 07:31:32;;;;;;;6.72;3.40;;;15.70;94.50;;;;;;5050343;28;20041;-64
2023/10/25 07:33:58;;;;;;;8.68;3.45;;;15.60;93.70;;;;;;5046010;28;20072;-64
2023/10/25 07:36:25;;;;;;;7.85;3.78;;;15.60;94.60;;;;;;5049037;28;20106;-64
2023/10/25 07:38:52;;;;;;;7.38;3.60;;;15.70;94.60;;;;;;5046080;28;20395;-65
2023/10/25 07:41:18;;;;;;;9.95;3.17;;;;;;;;;;5046780;28;20079;-64
2023/10/25 07:43:44;;;;;;;7.63;3.38;;;;;;;;;;5040992;28;20077;-71
2023/10/25 07:46:10;;;;;;;5.97;3.10;;;15.70;94.70;;;;;;5046278;28;20111;-63
2023/10/25 07:48:36;;;;;;;6.85;3.20;;;15.70;94.70;;;;;;5046079;28;20037;-64
2023/10/25 07:51:05;;;;;;;6.88;2.90;;;15.70;93.50;;;;;;5044382;28;20588;-65
2023/10/25 07:53:31;;;;;;;7.93;2.97;;;15.80;94.70;;;;;;5050081;28;20809;-64
2023/10/25 07:56:00;;;;;;;6.57;3.05;;;15.70;93.70;;;;;;5047988;28;20529;-65
2023/10/25 07:58:27;;;;;;;7.93;3.00;;;;;;;;;;5033038;28;20056;-66
2023/10/25 08:00:53;;;;;;;8.43;3.00;;;15.90;94.80;;;;;;5052088;28;20703;-71
2023/10/25 08:03:19;;;;;;;6.75;3.15;;;16.00;94.80;;;;;;5050076;28;20122;-71
2023/10/25 08:05:45;;;;;;;6.60;2.75;;;16.00;94.70;;;;;;5050243;28;20430;-72
2023/10/25 08:08:11;;;;;;;7.03;2.90;;;;;;;;;;5053422;28;20052;-64
2023/10/25 08:10:37;;;;;;;5.53;2.88;;;15.90;94.70;;;;;;5051365;28;20520;-64
2023/10/25 08:13:03;;;;;;;7.32;2.88;;;16.30;94.80;;;;;;5051188;28;20041;-65
2023/10/25 08:15:29;;;;;;;6.55;2.60;;;16.20;94.80;;;;;;5046714;28;20122;-65
2023/10/25 08:17:55;;;;;;;7.22;3.17;;;16.20;94.00;;;;;;5052998;28;20123;-70
2023/10/25 08:20:21;;;;;;;6.28;2.70;;;;;;;;;;5050268;28;20140;-66
2023/10/25 08:22:47;;;;;;;6.07;2.40;;;16.40;94.60;;;;;;5049942;28;20486;-64
2023/10/25 08:25:13;;;;;;;6.80;2.63;;;;;;;;;;5032724;28;20052;-68
2023/10/25 08:27:39;;;;;;;7.35;3.05;;;16.50;94.50;;;;;;5051272;28;20044;-68
2023/10/25 08:30:06;;;;;;;5.28;2.63;;;16.50;94.50;;;;;;5052572;28;20040;-64
2023/10/25 08:32:32;;;;;;;6.13;2.80;;;16.40;94.50;;;;;;5034721;28;20084;-64
2023/10/25 08:34:58;;;;;;;7.10;2.92;;;16.50;94.40;;;;;;5048015;28;20073;-68
2023/10/25 08:37:24;;;;;;;6.60;3.10;;;16.50;94.00;;;;;;5052302;28;20053;-77
2023/10/25 08:39:50;;;;;;;6.30;2.88;;;16.50;94.40;;;;;;5054107;28;20056;-69
2023/10/25 08:42:15;;;;;;;8.02;2.80;;;16.50;94.50;;;;;;5051103;28;20080;-65
2023/10/25 08:44:42;;;;;;;6.53;2.60;;;;;;;;;;5046682;28;20049;-65
2023/10/25 08:47:09;;;;;;;7.15;2.80;;;16.40;93.30;;;;;;5051149;28;20049;-65
2023/10/25 08:49:36;;;;;;;8.70;3.40;;;16.50;94.40;;;;;;5051988;28;20421;-65
2023/10/25 08:52:02;;;;;;;5.68;2.85;;;16.40;94.40;;;;;;5052846;28;20538;-64
2023/10/25 08:54:28;;;;;;;5.30;2.58;;;16.40;94.40;;;;;;5048191;28;20124;-67
2023/10/25 08:56:55;;;;;;;6.18;2.70;;;;;;;;;;5048174;28;20067;-66
2023/10/25 08:59:20;;;;;;;6.15;2.85;;;16.50;94.40;;;;;;5046603;28;20045;-67
2023/10/25 09:01:47;;;;;;;5.97;2.97;;;16.80;93.20;;;;;;5048350;28;20045;-72
2023/10/25 09:04:13;;;;;;;7.78;3.30;;;16.60;94.40;;;;;;5047078;28;20061;-66
2023/10/25 09:06:39;;;;;;;8.48;3.15;;;16.70;94.50;;;;;;5035266;28;20037;-66
2023/10/25 09:09:06;;;;;;;7.47;3.20;;;16.70;93.50;;;;;;5049911;28;20045;-69
2023/10/25 09:11:43;;;;;;;8.20;3.30;;;16.80;92.90;;;;;;5051061;28;20037;-71
2023/10/25 09:14:10;;;;;;;8.25;3.58;;;16.80;94.10;;;;;;5043382;28;20101;-72
2023/10/25 09:16:43;;;;;;;6.35;3.45;;;16.70;94.50;;;;;;5045630;28;20446;-68
2023/10/25 09:19:09;;;;;;;;;;;16.70;93.60;;;;;;5049994;28;20080;-66
2023/10/25 09:21:36;;;;;;;7.13;3.40;;;;;;;;;;5044695;28;19972;-69
2023/10/25 09:24:07;;;;;;;8.10;3.35;;;;;;;;;;5048546;28;20053;-71
2023/10/25 09:26:34;;;;;;;7.07;3.22;;;16.90;94.50;;;;;;5047609;28;20068;-72
2023/10/25 09:29:00;;;;;;;6.70;3.00;;;;;;;;;;5048401;28;20443;-65
2023/10/25 09:31:29;;;;;;;7.53;3.15;;;16.90;94.40;;;;;;5049237;28;20149;-64
2023/10/25 09:33:59;;;;;;;7.65;3.33;;;17.00;94.50;;;;;;5050097;28;20073;-64
2023/10/25 09:36:26;;;;;;;7.80;2.78;;;16.90;94.50;;;;;;5048031;28;20086;-64
2023/10/25 09:38:53;;;;;;;8.50;3.40;;;;;;;;;;5012725;28;20052;-63
2023/10/25 09:41:18;;;;;;;6.70;3.42;;;17.10;94.50;;;;;;5032444;28;20431;-64
2023/10/25 09:43:51;;;;;;;6.47;2.70;;;16.80;94.40;;;;;;5028471;28;20100;-65
2023/10/25 09:46:21;;;;;;;6.18;3.17;;;17.00;94.50;;;;;;5050107;28;20128;-70
2023/10/25 09:48:54;;;;;;;8.55;3.50;;;17.00;92.60;;;;;;5020340;28;20515;-71
2023/10/25 09:51:44;;;;;;;8.10;3.50;;;16.90;94.30;;;;;;5045923;28;20416;-65
2023/10/25 09:54:14;;;;;;;6.60;3.33;;;16.90;94.30;;;;;;5040808;28;20049;-65
2023/10/25 09:56:40;;;;;;;8.73;3.45;;;17.00;94.30;;;;;;5024502;28;20398;-70
2023/10/25 09:59:10;;;;;;;7.20;3.10;;;17.10;92.60;;;;;;5038071;28;20049;-67
2023/10/25 10:01:39;;;;;;;6.53;3.17;;;16.90;94.40;;;;;;5059145;28;20051;-68
2023/10/25 10:04:35;;;;;;;7.53;3.38;;;17.10;94.40;;;;;;5049221;28;20044;-67
2023/10/25 10:07:20;;;;;;;6.15;2.95;;;16.80;94.30;;;;;;5051996;28;20088;-64
2023/10/25 10:10:14;;;;;;;6.25;3.30;;;17.10;94.40;;;;;;5056735;28;20038;-65
2023/10/25 10:12:40;;;;;;;6.22;3.17;;;17.20;94.40;;;;;;5042112;28;20042;-65
2023/10/25 10:15:07;;;;;;;9.02;3.78;;;17.20;94.40;;;;;;5028496;28;20049;-63
2023/10/25 10:17:35;;;;;;;6.80;3.90;;;17.30;94.40;;;;;;5038147;28;20038;-63
2023/10/25 10:20:04;;;;;;;7.38;3.13;;;17.10;94.30;;;;;;5034482;28;20049;-71
2023/10/25 10:22:30;;;;;;;6.82;2.97;;;17.10;94.40;;;;;;5052379;28;20107;-71
2023/10/25 10:25:04;;;;;;;6.72;2.92;;;17.20;94.40;;;;;;5037953;28;20041;-70
2023/10/25 10:27:42;;;;;;;6.78;2.90;;;17.40;92.80;;;;;;5042454;28;20437;-65
2023/10/25 10:30:34;;;;;;;7.72;3.30;;;17.40;94.40;;;;;;5039782;28;20133;-66
2023/10/25 10:33:01;;;;;;;6.60;3.00;;;17.40;93.30;;;;;;5046397;28;20060;-69
2023/10/25 10:35:28;;;;;;;7.38;3.55;;;17.40;94.50;;;;;;5044078;28;20045;-69
2023/10/25 10:37:57;;;;;;;7.60;3.15;;;17.80;92.80;;;;;;5033225;28;20057;-64
2023/10/25 10:40:23;;;;;;;6.50;2.95;;;17.70;94.70;;;;;;5049525;28;20359;-65
2023/10/25 10:42:49;;;;;;;7.75;2.90;;;;;;;;;;5027189;28;20045;-64
2023/10/25 10:45:19;;;;;;;7.03;3.10;;;17.50;93.50;;;;;;5060840;28;20152;-64
2023/10/25 10:48:13;;;;;;;9.68;3.08;;;17.60;94.60;;;;;;5044910;28;20049;-63
2023/10/25 10:50:40;;;;;;;5.32;2.60;;;17.70;94.60;;;;;;5039105;28;20049;-64
2023/10/25 10:53:05;;;;;;;7.28;3.20;;;17.80;94.70;;;;;;5048034;28;20086;-64
2023/10/25 10:55:32;;;;;;;6.50;3.10;;;17.90;94.70;;;;;;5046556;28;20445;-64
2023/10/25 10:57:57;;;;;;;7.40;3.08;;;17.90;94.70;;;;;;5050632;28;20483;-64
2023/10/25 11:00:25;;;;;;;5.68;3.08;;;17.80;94.60;;;;;;5043504;28;20051;-71
2023/10/25 11:02:51;;;;;;;7.50;2.97;;;18.00;94.70;;;;;;5011404;28;20487;-65
2023/10/25 11:05:22;;;;;;;9.68;2.80;;;18.00;94.60;;;;;;5023629;28;20095;-65
2023/10/25 11:07:48;;;;;;;6.50;2.83;;;18.10;94.70;;;;;;5045280;28;20049;-65
2023/10/25 11:10:14;;;;;;;7.63;3.28;;;;;;;;;;5044881;28;20442;-72
2023/10/25 11:12:40;;;;;;;6.38;2.90;;;;;;;;;;5045512;28;20389;-66
2023/10/25 11:15:06;;;;;;;8.82;3.25;;;18.10;94.70;;;;;;5033984;28;20038;-65
2023/10/25 11:17:35;;;;;;;8.40;3.50;;;18.10;94.30;;;;;;5037191;28;20047;-64
2023/10/25 11:20:01;;;;;;;9.35;3.47;;;18.20;94.50;;;;;;5049923;28;20041;-64
2023/10/25 11:22:30;;;;;;;7.07;3.40;;;18.30;94.50;;;;;;5040842;28;20045;-66
2023/10/25 11:24:57;;;;;;;12.57;3.40;;;18.30;94.20;;;;;;5050565;28;20045;-66
2023/10/25 11:27:31;;;;;;;9.48;3.20;;;18.00;93.30;;;;;;5039973;28;20107;-68
2023/10/25 11:29:57;;;;;;;9.80;3.20;;;18.30;94.50;;;;;;5026312;28;20120;-65
2023/10/25 11:32:23;;;;;;;11.45;3.42;;;;;;;;;;5044693;28;20053;-65
2023/10/25 11:34:54;;;;;;;15.50;3.63;;;;;;;;;;5036604;28;20050;-66
2023/10/25 11:37:20;;;;;;;11.10;3.33;;;18.20;94.50;;;;;;5043079;28;20047;-65
2023/10/25 11:40:01;;;;;;;12.48;3.65;;;18.20;92.90;;;;;;5022468;28;20676;-65
2023/10/25 11:42:29;;;;;;;12.38;3.38;;;18.10;94.20;;;;;;5038847;28;20384;-65
2023/10/25 11:44:55;;;;;;;9.73;2.95;;;18.00;94.60;;;;;;5056004;28;20560;-65
2023/10/25 11:47:21;;;;;;;10.43;3.63;;;18.10;94.70;;;;;;5033076;28;20045;-65
2023/10/25 11:49:56;;;;;;;11.95;3.00;;;18.20;94.10;;;;;;5035948;28;20415;-66
2023/10/25 11:52:23;;;;;;;6.45;2.72;;;18.10;94.10;;;;;;5034898;28;20469;-65
2023/10/25 11:54:55;;;;;;;13.68;3.00;;;;;;;;;;5051928;28;20048;-66
2023/10/25 11:57:31;;;;;;;8.00;2.95;;;18.30;94.90;;;;;;5050479;28;20045;-65
2023/10/25 11:59:58;;;;;;;11.70;3.33;;;;;;;;;;5054912;28;20061;-65
2023/10/25 12:02:25;;;;;;;10.68;2.97;;;18.30;93.90;;;;;;5036301;28;20106;-65
2023/10/25 12:04:52;;;;;;;12.35;2.88;;;17.90;94.90;;;;;;5052646;28;20483;-65
2023/10/25 12:07:21;;;;;;;8.68;3.35;;;;;;;;;;5035357;28;20111;-65
2023/10/25 12:09:47;;;;;;;6.60;2.83;;;;;;;;;;5035905;28;20103;-67
2023/10/25 12:12:14;;;;;;;6.68;2.75;;;;;;;;;;5055513;28;20073;-65
2023/10/25 12:14:40;;;;;;;6.63;2.40;;;18.00;95.00;;;;;;5054255;28;20037;-65
2023/10/25 12:17:06;;;;;;;7.75;2.80;;;17.90;95.00;;;;;;5053330;28;20041;-64
2023/10/25 12:19:39;;;;;;;6.57;2.50;;;18.00;95.10;;;;;;5054056;28;20087;-65
2023/10/25 12:22:05;;;;;;;9.15;2.80;;;18.00;95.10;;;;;;5037609;28;20081;-65
2023/10/25 12:24:32;;;;;;;5.57;2.10;;;18.00;95.10;;;;;;5021451;28;20417;-65
2023/10/25 12:27:02;;;;;;;8.77;2.22;;;17.80;95.00;;;;;;5033965;28;20069;-66
2023/10/25 12:29:28;;;;;;;9.18;2.78;;;;;;;;;;5020924;28;20120;-65
2023/10/25 12:31:54;;;;;;;6.65;2.20;;;17.80;95.10;;;;;;5049505;28;20045;-64
2023/10/25 12:34:20;;;;;;;6.47;2.45;;;17.70;95.00;;;;;;5017817;28;20049;-65
2023/10/25 12:36:46;;;;;;;6.50;2.55;;;17.80;94.70;;;;;;5044578;28;20135;-65
2023/10/25 12:39:13;;;;;;;6.50;2.20;;;17.80;95.10;;;;;;5042347;28;20049;-65
2023/10/25 12:41:39;;;;;;;9.65;2.63;;;;;;;;;;5017718;28;20063;-65
2023/10/25 12:44:08;;;;;;;5.68;2.40;;;17.70;95.10;;;;;;5020684;28;20084;-65
2023/10/25 12:46:34;;;;;;;6.70;2.67;;;;;;;;;;5052415;28;20053;-65
2023/10/25 12:49:00;;;;;;;5.88;2.60;;;;;;;;;;5035999;28;20119;-65
2023/10/25 12:51:26;;;;;;;8.50;2.63;;;;;;;;;;5053297;28;20049;-65
2023/10/25 12:53:53;;;;;;;7.05;2.75;;;;;;;;;;5053404;28;20525;-65
2023/10/25 12:56:18;;;;;;;5.88;2.35;;;17.80;95.20;;;;;;5053599;28;20049;-64
2023/10/25 12:58:44;;;;;;;6.50;2.47;;;17.70;93.90;;;;;;5056456;28;20096;-65
2023/10/25 13:01:11;;;;;;;5.18;2.50;;;;;;;;;;5017554;28;20063;-64
2023/10/25 13:03:36;;;;;;;7.45;2.63;;;17.60;95.20;;;;;;5041605;28;20087;-65
2023/10/25 13:06:03;;;;;;;5.82;2.72;;;17.70;95.30;;;;;;5053390;28;20068;-64
2023/10/25 13:08:29;;;;;;;6.93;2.60;;;;;;;;;;5068997;28;20394;-64
2023/10/25 13:10:56;;;;;;;6.65;2.53;;;;;;;;;;5053536;28;20463;-64
2023/10/25 13:13:21;;;;;;;6.78;2.40;;;17.60;95.30;;;;;;5051705;28;20041;-65
2023/10/25 13:15:48;;;;;;;5.63;2.50;;;17.50;95.20;;;;;;5052717;28;20506;-67
2023/10/25 13:18:14;;;;;;;12.45;2.97;;;17.50;95.30;;;;;;5035955;28;20048;-66